sensor_id;sensor_type;location;lat;lon;timestamp;pressure;altitude;pressure_sealevel;temperature
78859;BMP280;68210;52.032;4.634;2023-04-15T00:01:40;100731.06;;;10.68
78859;BMP280;68210;52.032;4.634;2023-04-15T00:03:40;100715.75;;;10.60
78859;BMP280;68210;52.032;4.634;2023-04-15T00:05:41;100720.22;;;10.68
78859;BMP280;68210;52.032;4.634;2023-04-15T00:07:41;100720.22;;;10.68
78859;BMP280;68210;52.032;4.634;2023-04-15T00:09:42;100715.69;;;10.72
78859;BMP280;68210;52.032;4.634;2023-04-15T00:11:42;100725.03;;;10.59
78859;BMP280;68210;52.032;4.634;2023-04-15T00:13:43;100739.63;;;10.55
78859;BMP280;68210;52.032;4.634;2023-04-15T00:15:43;100737.28;;;10.53
78859;BMP280;68210;52.032;4.634;2023-04-15T00:17:43;100723.91;;;10.30
78859;BMP280;68210;52.032;4.634;2023-04-15T00:19:45;100730.13;;;10.45
78859;BMP280;68210;52.032;4.634;2023-04-15T00:21:45;100724.97;;;10.40
78859;BMP280;68210;52.032;4.634;2023-04-15T00:23:46;100735.72;;;10.22
78859;BMP280;68210;52.032;4.634;2023-04-15T00:25:51;100726.50;;;10.26
78859;BMP280;68210;52.032;4.634;2023-04-15T00:27:51;100726.97;;;10.13
78859;BMP280;68210;52.032;4.634;2023-04-15T00:29:52;100727.91;;;10.05
78859;BMP280;68210;52.032;4.634;2023-04-15T00:31:53;100729.03;;;10.04
78859;BMP280;68210;52.032;4.634;2023-04-15T00:33:53;100734.91;;;10.06
78859;BMP280;68210;52.032;4.634;2023-04-15T00:35:55;100733.84;;;9.95
78859;BMP280;68210;52.032;4.634;2023-04-15T00:37:56;100737.94;;;9.89
78859;BMP280;68210;52.032;4.634;2023-04-15T00:39:56;100730.88;;;10.00
78859;BMP280;68210;52.032;4.634;2023-04-15T00:41:56;100740.63;;;9.89
78859;BMP280;68210;52.032;4.634;2023-04-15T00:43:57;100733.84;;;9.95
78859;BMP280;68210;52.032;4.634;2023-04-15T00:45:59;100725.53;;;10.03
78859;BMP280;68210;52.032;4.634;2023-04-15T00:48:00;100738.63;;;10.01
78859;BMP280;68210;52.032;4.634;2023-04-15T00:50:00;100737.22;;;9.92
78859;BMP280;68210;52.032;4.634;2023-04-15T00:52:01;100734.63;;;9.96
78859;BMP280;68210;52.032;4.634;2023-04-15T00:54:02;100734.38;;;10.01
78859;BMP280;68210;52.032;4.634;2023-04-15T00:56:04;100740.94;;;10.00
78859;BMP280;68210;52.032;4.634;2023-04-15T00:58:04;100725.72;;;9.95
78859;BMP280;68210;52.032;4.634;2023-04-15T01:00:06;100724.69;;;10.00
78859;BMP280;68210;52.032;4.634;2023-04-15T01:02:11;100733.38;;;9.93
78859;BMP280;68210;52.032;4.634;2023-04-15T01:04:11;100729.44;;;9.91
78859;BMP280;68210;52.032;4.634;2023-04-15T01:06:12;100724.59;;;9.84
78859;BMP280;68210;52.032;4.634;2023-04-15T01:08:13;100739.84;;;9.89
78859;BMP280;68210;52.032;4.634;2023-04-15T01:10:14;100734.28;;;9.97
78859;BMP280;68210;52.032;4.634;2023-04-15T01:12:15;100734.44;;;9.89
78859;BMP280;68210;52.032;4.634;2023-04-15T01:14:16;100737.06;;;9.73
78859;BMP280;68210;52.032;4.634;2023-04-15T01:16:18;100742.94;;;9.75
78859;BMP280;68210;52.032;4.634;2023-04-15T01:18:19;100740.03;;;9.69
78859;BMP280;68210;52.032;4.634;2023-04-15T01:20:20;100743.41;;;9.66
78859;BMP280;68210;52.032;4.634;2023-04-15T01:22:21;100736.78;;;9.63
78859;BMP280;68210;52.032;4.634;2023-04-15T01:24:22;100733.28;;;9.63
78859;BMP280;68210;52.032;4.634;2023-04-15T01:26:25;100735.31;;;9.66
78859;BMP280;68210;52.032;4.634;2023-04-15T01:28:25;100740.88;;;9.72
78859;BMP280;68210;52.032;4.634;2023-04-15T01:30:26;100738.19;;;9.72
78859;BMP280;68210;52.032;4.634;2023-04-15T01:32:26;100733.28;;;9.63
78859;BMP280;68210;52.032;4.634;2023-04-15T01:34:27;100735.25;;;9.50
78859;BMP280;68210;52.032;4.634;2023-04-15T01:36:27;100733.06;;;9.56
78859;BMP280;68210;52.032;4.634;2023-04-15T01:38:29;100731.16;;;9.56
78859;BMP280;68210;52.032;4.634;2023-04-15T01:40:30;100737.16;;;9.50
78859;BMP280;68210;52.032;4.634;2023-04-15T01:42:31;100738.84;;;9.54
78859;BMP280;68210;52.032;4.634;2023-04-15T01:44:31;100738.53;;;9.44
78859;BMP280;68210;52.032;4.634;2023-04-15T01:46:32;100736.94;;;9.43
78859;BMP280;68210;52.032;4.634;2023-04-15T01:48:32;100740.59;;;9.35
78859;BMP280;68210;52.032;4.634;2023-04-15T01:50:33;100747.34;;;9.41
78859;BMP280;68210;52.032;4.634;2023-04-15T01:52:35;100750.44;;;9.16
78859;BMP280;68210;52.032;4.634;2023-04-15T01:54:36;100743.13;;;9.16
78859;BMP280;68210;52.032;4.634;2023-04-15T01:56:36;100750.09;;;9.17
78859;BMP280;68210;52.032;4.634;2023-04-15T01:58:38;100750.31;;;9.24
78859;BMP280;68210;52.032;4.634;2023-04-15T02:00:39;100752.78;;;9.29
78859;BMP280;68210;52.032;4.634;2023-04-15T02:02:40;100753.81;;;9.13
78859;BMP280;68210;52.032;4.634;2023-04-15T02:04:40;100750.53;;;9.31
78859;BMP280;68210;52.032;4.634;2023-04-15T02:06:44;100749.66;;;9.27
78859;BMP280;68210;52.032;4.634;2023-04-15T02:08:45;100759.38;;;9.16
78859;BMP280;68210;52.032;4.634;2023-04-15T02:10:45;100752.59;;;9.22
78859;BMP280;68210;52.032;4.634;2023-04-15T02:12:45;100748.88;;;9.15
78859;BMP280;68210;52.032;4.634;2023-04-15T02:14:46;100748.19;;;9.18
78859;BMP280;68210;52.032;4.634;2023-04-15T02:16:46;100752.59;;;9.22
78859;BMP280;68210;52.032;4.634;2023-04-15T02:18:47;100754.06;;;9.20
78859;BMP280;68210;52.032;4.634;2023-04-15T02:20:47;100754.00;;;9.32
78859;BMP280;68210;52.032;4.634;2023-04-15T02:22:48;100752.78;;;9.29
78859;BMP280;68210;52.032;4.634;2023-04-15T02:24:48;100749.66;;;9.27
78859;BMP280;68210;52.032;4.634;2023-04-15T02:26:49;100752.53;;;9.34
78859;BMP280;68210;52.032;4.634;2023-04-15T02:28:49;100758.09;;;9.26
78859;BMP280;68210;52.032;4.634;2023-04-15T02:30:50;100755.41;;;9.14
78859;BMP280;68210;52.032;4.634;2023-04-15T02:32:52;100756.75;;;9.08
78859;BMP280;68210;52.032;4.634;2023-04-15T02:34:52;100757.34;;;9.02
78859;BMP280;68210;52.032;4.634;2023-04-15T02:36:52;100767.94;;;8.95
78859;BMP280;68210;52.032;4.634;2023-04-15T02:38:56;100785.19;;;8.90
78859;BMP280;68210;52.032;4.634;2023-04-15T02:40:56;100779.22;;;8.85
78859;BMP280;68210;52.032;4.634;2023-04-15T02:42:57;100784.84;;;8.80
78859;BMP280;68210;52.032;4.634;2023-04-15T02:44:57;100787.09;;;8.78
78859;BMP280;68210;52.032;4.634;2023-04-15T02:46:58;100785.84;;;8.76
78859;BMP280;68210;52.032;4.634;2023-04-15T02:48:58;100782.56;;;8.70
78859;BMP280;68210;52.032;4.634;2023-04-15T02:51:18;100789.00;;;8.66
78859;BMP280;68210;52.032;4.634;2023-04-15T02:53:19;100791.00;;;8.57
78859;BMP280;68210;52.032;4.634;2023-04-15T02:55:20;100792.25;;;8.48
78859;BMP280;68210;52.032;4.634;2023-04-15T02:57:20;100796.53;;;8.48
78859;BMP280;68210;52.032;4.634;2023-04-15T02:59:21;100792.56;;;8.46
78859;BMP280;68210;52.032;4.634;2023-04-15T03:01:21;100793.13;;;8.40
78859;BMP280;68210;52.032;4.634;2023-04-15T03:03:22;100802.00;;;8.28
78859;BMP280;68210;52.032;4.634;2023-04-15T03:05:22;100793.56;;;8.30
78859;BMP280;68210;52.032;4.634;2023-04-15T03:07:24;100796.72;;;8.32
78859;BMP280;68210;52.032;4.634;2023-04-15T03:09:25;100801.34;;;8.31
78859;BMP280;68210;52.032;4.634;2023-04-15T03:11:25;100790.75;;;8.26
78859;BMP280;68210;52.032;4.634;2023-04-15T03:13:28;100805.03;;;8.27
78859;BMP280;68210;52.032;4.634;2023-04-15T03:15:29;100817.63;;;8.23
78859;BMP280;68210;52.032;4.634;2023-04-15T03:17:29;100802.53;;;8.22
78859;BMP280;68210;52.032;4.634;2023-04-15T03:19:30;100803.69;;;8.21
78859;BMP280;68210;52.032;4.634;2023-04-15T03:21:30;100806.69;;;8.19
78859;BMP280;68210;52.032;4.634;2023-04-15T03:23:32;100806.13;;;8.14
78859;BMP280;68210;52.032;4.634;2023-04-15T03:25:32;100807.25;;;8.13
78859;BMP280;68210;52.032;4.634;2023-04-15T03:27:32;100816.81;;;8.11
78859;BMP280;68210;52.032;4.634;2023-04-15T03:29:33;100811.50;;;8.14
78859;BMP280;68210;52.032;4.634;2023-04-15T03:31:33;100816.69;;;8.07
78859;BMP280;68210;52.032;4.634;2023-04-15T03:33:33;100821.13;;;8.03
78859;BMP280;68210;52.032;4.634;2023-04-15T03:35:34;100822.47;;;7.97
78859;BMP280;68210;52.032;4.634;2023-04-15T03:37:34;100826.53;;;8.03
78859;BMP280;68210;52.032;4.634;2023-04-15T03:39:35;100832.59;;;8.00
78859;BMP280;68210;52.032;4.634;2023-04-15T03:41:36;100829.09;;;8.00
78859;BMP280;68210;52.032;4.634;2023-04-15T03:43:36;100821.69;;;7.97
78859;BMP280;68210;52.032;4.634;2023-04-15T03:45:36;100829.66;;;7.93
78859;BMP280;68210;52.032;4.634;2023-04-15T03:47:37;100828.25;;;7.87
78859;BMP280;68210;52.032;4.634;2023-04-15T03:49:37;100832.19;;;7.90
78859;BMP280;68210;52.032;4.634;2023-04-15T03:51:37;100852.09;;;7.86
78859;BMP280;68210;52.032;4.634;2023-04-15T03:53:38;100847.38;;;7.83
78859;BMP280;68210;52.032;4.634;2023-04-15T03:55:38;100850.69;;;7.80
78859;BMP280;68210;52.032;4.634;2023-04-15T03:57:39;100859.75;;;7.84
78859;BMP280;68210;52.032;4.634;2023-04-15T03:59:39;100861.97;;;7.82
78859;BMP280;68210;52.032;4.634;2023-04-15T04:01:40;100851.16;;;7.82
78859;BMP280;68210;52.032;4.634;2023-04-15T04:03:40;100860.63;;;7.87
78859;BMP280;68210;52.032;4.634;2023-04-15T04:05:41;100871.50;;;7.79
78859;BMP280;68210;52.032;4.634;2023-04-15T04:07:43;100861.00;;;7.86
78859;BMP280;68210;52.032;4.634;2023-04-15T04:09:44;100858.16;;;7.83
78859;BMP280;68210;52.032;4.634;2023-04-15T04:11:44;100868.97;;;7.83
78859;BMP280;68210;52.032;4.634;2023-04-15T04:13:45;100870.25;;;7.77
78859;BMP280;68210;52.032;4.634;2023-04-15T04:15:45;100881.22;;;7.80
78859;BMP280;68210;52.032;4.634;2023-04-15T04:17:46;100871.38;;;7.76
78859;BMP280;68210;52.032;4.634;2023-04-15T04:19:46;100884.41;;;7.74
78859;BMP280;68210;52.032;4.634;2023-04-15T04:21:46;100866.53;;;7.69
78859;BMP280;68210;52.032;4.634;2023-04-15T04:23:47;100876.06;;;7.67
78859;BMP280;68210;52.032;4.634;2023-04-15T04:25:47;100889.56;;;7.67
78859;BMP280;68210;52.032;4.634;2023-04-15T04:27:48;100881.47;;;7.67
78859;BMP280;68210;52.032;4.634;2023-04-15T04:29:48;100887.44;;;7.72
78859;BMP280;68210;52.032;4.634;2023-04-15T04:31:49;100886.66;;;7.72
78859;BMP280;68210;52.032;4.634;2023-04-15T04:33:49;100893.81;;;7.68
78859;BMP280;68210;52.032;4.634;2023-04-15T04:35:49;100897.97;;;7.65
78859;BMP280;68210;52.032;4.634;2023-04-15T04:37:50;100908.56;;;7.70
78859;BMP280;68210;52.032;4.634;2023-04-15T04:39:51;100897.78;;;7.70
78859;BMP280;68210;52.032;4.634;2023-04-15T04:41:51;100905.56;;;7.72
78859;BMP280;68210;52.032;4.634;2023-04-15T04:43:52;100900.16;;;7.72
78859;BMP280;68210;52.032;4.634;2023-04-15T04:45:52;100914.75;;;7.71
78859;BMP280;68210;52.032;4.634;2023-04-15T04:47:53;100911.88;;;7.76
78859;BMP280;68210;52.032;4.634;2023-04-15T04:49:53;100910.53;;;7.61
78859;BMP280;68210;52.032;4.634;2023-04-15T04:51:53;100919.25;;;7.67
78859;BMP280;68210;52.032;4.634;2023-04-15T04:53:54;100924.28;;;7.68
78859;BMP280;68210;52.032;4.634;2023-04-15T04:55:55;100938.13;;;7.67
78859;BMP280;68210;52.032;4.634;2023-04-15T04:57:56;100933.97;;;7.69
78859;BMP280;68210;52.032;4.634;2023-04-15T04:59:56;100934.09;;;7.73
78859;BMP280;68210;52.032;4.634;2023-04-15T05:01:56;100942.06;;;7.69
78859;BMP280;68210;52.032;4.634;2023-04-15T05:03:57;100942.38;;;7.68
78859;BMP280;68210;52.032;4.634;2023-04-15T05:05:57;100952.72;;;7.66
78859;BMP280;68210;52.032;4.634;2023-04-15T05:07:58;100943.50;;;7.67
78859;BMP280;68210;52.032;4.634;2023-04-15T05:09:58;100948.25;;;7.70
78859;BMP280;68210;52.032;4.634;2023-04-15T05:11:59;100957.00;;;7.67
78859;BMP280;68210;52.032;4.634;2023-04-15T05:14:00;100961.09;;;7.73
78859;BMP280;68210;52.032;4.634;2023-04-15T05:16:01;100954.13;;;7.72
78859;BMP280;68210;52.032;4.634;2023-04-15T05:18:01;100966.75;;;7.80
78859;BMP280;68210;52.032;4.634;2023-04-15T05:20:02;100977.34;;;7.85
78859;BMP280;68210;52.032;4.634;2023-04-15T05:22:02;100977.16;;;7.89
78859;BMP280;68210;52.032;4.634;2023-04-15T05:24:03;100981.00;;;7.88
78859;BMP280;68210;52.032;4.634;2023-04-15T05:26:03;100989.16;;;8.00
78859;BMP280;68210;52.032;4.634;2023-04-15T05:28:04;100990.91;;;8.05
78859;BMP280;68210;52.032;4.634;2023-04-15T05:30:05;100985.59;;;8.17
78859;BMP280;68210;52.032;4.634;2023-04-15T05:32:06;100987.97;;;8.18
78859;BMP280;68210;52.032;4.634;2023-04-15T05:34:07;100993.56;;;8.33
78859;BMP280;68210;52.032;4.634;2023-04-15T05:36:07;101011.94;;;8.40
78859;BMP280;68210;52.032;4.634;2023-04-15T05:38:08;101004.34;;;8.53
78859;BMP280;68210;52.032;4.634;2023-04-15T05:40:08;101013.50;;;8.61
78859;BMP280;68210;52.032;4.634;2023-04-15T05:42:09;101022.69;;;8.68
78859;BMP280;68210;52.032;4.634;2023-04-15T05:44:10;101029.25;;;8.79
78859;BMP280;68210;52.032;4.634;2023-04-15T05:46:10;101029.88;;;8.96
78859;BMP280;68210;52.032;4.634;2023-04-15T05:48:11;101025.50;;;9.04
78859;BMP280;68210;52.032;4.634;2023-04-15T05:50:11;101037.47;;;9.14
78859;BMP280;68210;52.032;4.634;2023-04-15T05:52:12;101040.78;;;9.32
78859;BMP280;68210;52.032;4.634;2023-04-15T05:54:12;101040.81;;;9.67
78859;BMP280;68210;52.032;4.634;2023-04-15T05:56:12;101037.44;;;10.29
78859;BMP280;68210;52.032;4.634;2023-04-15T05:58:13;101052.53;;;10.42
78859;BMP280;68210;52.032;4.634;2023-04-15T06:00:13;101048.34;;;10.83
78859;BMP280;68210;52.032;4.634;2023-04-15T06:02:14;101055.44;;;11.15
78859;BMP280;68210;52.032;4.634;2023-04-15T06:04:15;101052.69;;;10.99
78859;BMP280;68210;52.032;4.634;2023-04-15T06:06:16;101055.03;;;10.74
78859;BMP280;68210;52.032;4.634;2023-04-15T06:08:17;101066.28;;;10.88
78859;BMP280;68210;52.032;4.634;2023-04-15T06:10:18;101070.53;;;11.00
78859;BMP280;68210;52.032;4.634;2023-04-15T06:12:18;101072.50;;;11.15
78859;BMP280;68210;52.032;4.634;2023-04-15T06:14:19;101073.97;;;11.13
78859;BMP280;68210;52.032;4.634;2023-04-15T06:16:19;101080.09;;;11.10
78859;BMP280;68210;52.032;4.634;2023-04-15T06:18:20;101085.31;;;11.30
78859;BMP280;68210;52.032;4.634;2023-04-15T06:20:20;101092.13;;;11.24
78859;BMP280;68210;52.032;4.634;2023-04-15T06:22:21;101097.81;;;11.46
78859;BMP280;68210;52.032;4.634;2023-04-15T06:24:22;101113.94;;;11.54
78859;BMP280;68210;52.032;4.634;2023-04-15T06:26:22;101106.00;;;11.77
78859;BMP280;68210;52.032;4.634;2023-04-15T06:28:23;101114.25;;;11.95
78859;BMP280;68210;52.032;4.634;2023-04-15T06:30:24;101111.25;;;11.85
78859;BMP280;68210;52.032;4.634;2023-04-15T06:32:25;101124.06;;;11.84
78859;BMP280;68210;52.032;4.634;2023-04-15T06:34:25;101115.03;;;12.11
78859;BMP280;68210;52.032;4.634;2023-04-15T06:36:26;101115.69;;;12.39
78859;BMP280;68210;52.032;4.634;2023-04-15T06:38:27;101118.78;;;12.56
78859;BMP280;68210;52.032;4.634;2023-04-15T06:40:27;101122.22;;;12.53
78859;BMP280;68210;52.032;4.634;2023-04-15T06:42:27;101131.03;;;12.80
78859;BMP280;68210;52.032;4.634;2023-04-15T06:44:28;101133.66;;;13.11
78859;BMP280;68210;52.032;4.634;2023-04-15T06:46:28;101141.44;;;12.94
78859;BMP280;68210;52.032;4.634;2023-04-15T06:48:29;101142.09;;;13.25
78859;BMP280;68210;52.032;4.634;2023-04-15T06:50:29;101139.88;;;13.30
78859;BMP280;68210;52.032;4.634;2023-04-15T06:52:30;101146.81;;;13.28
78859;BMP280;68210;52.032;4.634;2023-04-15T06:54:30;101147.97;;;13.45
78859;BMP280;68210;52.032;4.634;2023-04-15T06:56:32;101137.38;;;13.63
78859;BMP280;68210;52.032;4.634;2023-04-15T06:58:32;101143.41;;;13.53
78859;BMP280;68210;52.032;4.634;2023-04-15T07:00:33;101145.66;;;13.47
78859;BMP280;68210;52.032;4.634;2023-04-15T07:02:33;101151.50;;;13.68
78859;BMP280;68210;52.032;4.634;2023-04-15T07:04:33;101146.44;;;13.89
78859;BMP280;68210;52.032;4.634;2023-04-15T07:06:34;101149.00;;;14.00
78859;BMP280;68210;52.032;4.634;2023-04-15T07:08:35;101145.44;;;13.97
78859;BMP280;68210;52.032;4.634;2023-04-15T07:10:35;101156.78;;;14.46
78859;BMP280;68210;52.032;4.634;2023-04-15T07:12:36;101166.69;;;14.57
78859;BMP280;68210;52.032;4.634;2023-04-15T07:14:37;101153.97;;;14.94
78859;BMP280;68210;52.032;4.634;2023-04-15T07:16:37;101161.44;;;14.97
78859;BMP280;68210;52.032;4.634;2023-04-15T07:18:37;101170.25;;;15.13
78859;BMP280;68210;52.032;4.634;2023-04-15T07:20:39;101157.34;;;15.10
78859;BMP280;68210;52.032;4.634;2023-04-15T07:22:39;101164.19;;;15.26
78859;BMP280;68210;52.032;4.634;2023-04-15T07:24:40;101162.16;;;15.52
78859;BMP280;68210;52.032;4.634;2023-04-15T07:26:40;101157.47;;;15.88
78859;BMP280;68210;52.032;4.634;2023-04-15T07:28:41;101166.63;;;16.03
78859;BMP280;68210;52.032;4.634;2023-04-15T07:30:41;101168.94;;;16.43
78859;BMP280;68210;52.032;4.634;2023-04-15T07:32:42;101168.69;;;16.62
78859;BMP280;68210;52.032;4.634;2023-04-15T07:34:43;101178.34;;;17.09
78859;BMP280;68210;52.032;4.634;2023-04-15T07:36:43;101178.09;;;17.25
78859;BMP280;68210;52.032;4.634;2023-04-15T07:38:45;101184.59;;;17.06
78859;BMP280;68210;52.032;4.634;2023-04-15T07:40:45;101181.00;;;17.69
78859;BMP280;68210;52.032;4.634;2023-04-15T07:42:46;101187.66;;;17.72
78859;BMP280;68210;52.032;4.634;2023-04-15T07:44:48;101187.97;;;17.46
78859;BMP280;68210;52.032;4.634;2023-04-15T07:46:48;101199.03;;;17.81
78859;BMP280;68210;52.032;4.634;2023-04-15T07:48:49;101206.88;;;17.68
78859;BMP280;68210;52.032;4.634;2023-04-15T07:50:50;101204.50;;;17.70
78859;BMP280;68210;52.032;4.634;2023-04-15T07:52:50;101204.59;;;18.01
78859;BMP280;68210;52.032;4.634;2023-04-15T07:54:51;101206.88;;;17.68
78859;BMP280;68210;52.032;4.634;2023-04-15T07:56:51;101209.16;;;17.60
78859;BMP280;68210;52.032;4.634;2023-04-15T07:58:52;101225.88;;;17.31
78859;BMP280;68210;52.032;4.634;2023-04-15T08:00:52;101223.16;;;17.34
78859;BMP280;68210;52.032;4.634;2023-04-15T08:02:55;101227.00;;;17.19
78859;BMP280;68210;52.032;4.634;2023-04-15T08:04:56;101223.22;;;17.48
78859;BMP280;68210;52.032;4.634;2023-04-15T08:06:57;101245.47;;;16.76
78859;BMP280;68210;52.032;4.634;2023-04-15T08:08:57;101233.84;;;17.60
78859;BMP280;68210;52.032;4.634;2023-04-15T08:10:57;101253.16;;;17.91
78859;BMP280;68210;52.032;4.634;2023-04-15T08:12:58;101255.97;;;18.04
78859;BMP280;68210;52.032;4.634;2023-04-15T08:14:58;101240.22;;;17.91
78859;BMP280;68210;52.032;4.634;2023-04-15T08:16:59;101257.66;;;17.42
78859;BMP280;68210;52.032;4.634;2023-04-15T08:19:00;101245.50;;;17.39
78859;BMP280;68210;52.032;4.634;2023-04-15T08:21:00;101259.69;;;17.55
78859;BMP280;68210;52.032;4.634;2023-04-15T08:23:01;101267.22;;;17.79
78859;BMP280;68210;52.032;4.634;2023-04-15T08:25:01;101267.50;;;17.53
78859;BMP280;68210;52.032;4.634;2023-04-15T08:27:02;101264.81;;;17.64
78859;BMP280;68210;52.032;4.634;2023-04-15T08:29:04;101266.78;;;17.70
78859;BMP280;68210;52.032;4.634;2023-04-15T08:31:05;101275.19;;;17.31
78859;BMP280;68210;52.032;4.634;2023-04-15T08:33:05;101290.44;;;17.28
78859;BMP280;68210;52.032;4.634;2023-04-15T08:35:06;101282.34;;;16.92
78859;BMP280;68210;52.032;4.634;2023-04-15T08:37:07;101286.72;;;16.54
78859;BMP280;68210;52.032;4.634;2023-04-15T08:39:07;101296.81;;;16.46
78859;BMP280;68210;52.032;4.634;2023-04-15T08:41:21;101295.72;;;17.01
78859;BMP280;68210;52.032;4.634;2023-04-15T08:43:28;101295.28;;;16.95
78859;BMP280;68210;52.032;4.634;2023-04-15T08:45:33;101305.78;;;16.83
78859;BMP280;68210;52.032;4.634;2023-04-15T08:47:34;101307.13;;;16.60
78859;BMP280;68210;52.032;4.634;2023-04-15T08:49:39;101315.97;;;16.46
78859;BMP280;68210;52.032;4.634;2023-04-15T08:51:40;101308.03;;;16.74
78859;BMP280;68210;52.032;4.634;2023-04-15T08:53:44;101324.78;;;16.69
78859;BMP280;68210;52.032;4.634;2023-04-15T08:55:50;101332.19;;;16.62
78859;BMP280;68210;52.032;4.634;2023-04-15T08:57:51;101323.06;;;16.51
78859;BMP280;68210;52.032;4.634;2023-04-15T08:59:53;101329.16;;;16.73
78859;BMP280;68210;52.032;4.634;2023-04-15T09:01:56;101325.09;;;16.61
78859;BMP280;68210;52.032;4.634;2023-04-15T09:03:58;101336.13;;;16.64
78859;BMP280;68210;52.032;4.634;2023-04-15T09:05:58;101341.63;;;16.71
78859;BMP280;68210;52.032;4.634;2023-04-15T09:07:59;101344.59;;;16.56
78859;BMP280;68210;52.032;4.634;2023-04-15T09:10:00;101344.91;;;16.47
78859;BMP280;68210;52.032;4.634;2023-04-15T09:12:00;101337.13;;;16.49
78859;BMP280;68210;52.032;4.634;2023-04-15T09:14:01;101346.34;;;16.71
78859;BMP280;68210;52.032;4.634;2023-04-15T09:16:01;101331.63;;;16.89
78859;BMP280;68210;52.032;4.634;2023-04-15T09:18:03;101330.81;;;16.85
78859;BMP280;68210;52.032;4.634;2023-04-15T09:20:09;101351.06;;;16.73
78859;BMP280;68210;52.032;4.634;2023-04-15T09:22:10;101355.88;;;16.87
78859;BMP280;68210;52.032;4.634;2023-04-15T09:24:11;101339.75;;;17.21
78859;BMP280;68210;52.032;4.634;2023-04-15T09:26:11;101351.13;;;17.23
78859;BMP280;68210;52.032;4.634;2023-04-15T09:28:12;101375.41;;;16.85
78859;BMP280;68210;52.032;4.634;2023-04-15T09:30:13;101354.66;;;17.27
78859;BMP280;68210;52.032;4.634;2023-04-15T09:32:14;101349.72;;;16.97
78859;BMP280;68210;52.032;4.634;2023-04-15T09:34:15;101369.34;;;16.66
78859;BMP280;68210;52.032;4.634;2023-04-15T09:36:16;101360.53;;;16.43
78859;BMP280;68210;52.032;4.634;2023-04-15T09:38:16;101379.22;;;16.35
78859;BMP280;68210;52.032;4.634;2023-04-15T09:42:32;101393.47;;;16.93
78859;BMP280;68210;52.032;4.634;2023-04-15T09:44:33;101380.59;;;16.94
78859;BMP280;68210;52.032;4.634;2023-04-15T09:46:44;101384.00;;;16.44
78859;BMP280;68210;52.032;4.634;2023-04-15T09:48:44;101381.81;;;16.24
78859;BMP280;68210;52.032;4.634;2023-04-15T09:50:45;101394.63;;;15.91
78859;BMP280;68210;52.032;4.634;2023-04-15T09:52:46;101397.50;;;16.31
78859;BMP280;68210;52.032;4.634;2023-04-15T09:54:46;101396.56;;;16.16
78859;BMP280;68210;52.032;4.634;2023-04-15T09:56:47;101405.06;;;16.11
78859;BMP280;68210;52.032;4.634;2023-04-15T09:58:55;101399.47;;;16.01
78859;BMP280;68210;52.032;4.634;2023-04-15T10:00:57;101408.84;;;16.00
78859;BMP280;68210;52.032;4.634;2023-04-15T10:02:58;101410.53;;;15.82
78859;BMP280;68210;52.032;4.634;2023-04-15T10:04:58;101419.78;;;16.00
78859;BMP280;68210;52.032;4.634;2023-04-15T10:06:59;101399.00;;;16.25
78859;BMP280;68210;52.032;4.634;2023-04-15T10:09:00;101413.47;;;16.25
78859;BMP280;68210;52.032;4.634;2023-04-15T10:11:01;101425.91;;;16.19
78859;BMP280;68210;52.032;4.634;2023-04-15T10:13:01;101404.25;;;15.79
78859;BMP280;68210;52.032;4.634;2023-04-15T10:15:03;101417.16;;;15.56
78859;BMP280;68210;52.032;4.634;2023-04-15T10:17:04;101426.84;;;15.76
78859;BMP280;68210;52.032;4.634;2023-04-15T10:19:06;101425.28;;;15.78
78859;BMP280;68210;52.032;4.634;2023-04-15T10:21:07;101426.00;;;15.72
78859;BMP280;68210;52.032;4.634;2023-04-15T10:23:08;101432.81;;;15.59
78859;BMP280;68210;52.032;4.634;2023-04-15T10:25:09;101426.19;;;15.34
78859;BMP280;68210;52.032;4.634;2023-04-15T10:27:10;101428.91;;;15.34
78859;BMP280;68210;52.032;4.634;2023-04-15T10:29:11;101423.28;;;15.24
78859;BMP280;68210;52.032;4.634;2023-04-15T10:31:12;101428.31;;;15.44
78859;BMP280;68210;52.032;4.634;2023-04-15T10:33:16;101431.47;;;15.72
78859;BMP280;68210;52.032;4.634;2023-04-15T10:35:17;101428.09;;;15.81
78859;BMP280;68210;52.032;4.634;2023-04-15T10:37:24;101427.69;;;15.80
78859;BMP280;68210;52.032;4.634;2023-04-15T10:41:33;101432.28;;;15.50
78859;BMP280;68210;52.032;4.634;2023-04-15T10:43:36;101442.13;;;15.80
78859;BMP280;68210;52.032;4.634;2023-04-15T10:45:36;101449.44;;;15.47
78859;BMP280;68210;52.032;4.634;2023-04-15T10:47:37;101433.28;;;15.64
78859;BMP280;68210;52.032;4.634;2023-04-15T10:49:46;101436.97;;;15.50
78859;BMP280;68210;52.032;4.634;2023-04-15T10:51:51;101446.91;;;15.61
78859;BMP280;68210;52.032;4.634;2023-04-15T10:53:55;101449.44;;;15.47
78859;BMP280;68210;52.032;4.634;2023-04-15T10:55:57;101451.69;;;15.42
78859;BMP280;68210;52.032;4.634;2023-04-15T10:57:59;101446.66;;;15.69
78859;BMP280;68210;52.032;4.634;2023-04-15T11:00:09;101453.97;;;15.87
78859;BMP280;68210;52.032;4.634;2023-04-15T11:02:12;101466.06;;;15.86
78859;BMP280;68210;52.032;4.634;2023-04-15T11:04:13;101463.63;;;15.56
78859;BMP280;68210;52.032;4.634;2023-04-15T11:06:14;101451.44;;;15.50
78859;BMP280;68210;52.032;4.634;2023-04-15T11:08:14;101466.41;;;16.11
78859;BMP280;68210;52.032;4.634;2023-04-15T11:12:33;101447.44;;;15.95
78859;BMP280;68210;52.032;4.634;2023-04-15T11:14:40;101453.81;;;15.77
78859;BMP280;68210;52.032;4.634;2023-04-15T11:16:42;101447.13;;;16.00
78859;BMP280;68210;52.032;4.634;2023-04-15T11:18:55;101458.25;;;15.88
78859;BMP280;68210;52.032;4.634;2023-04-15T11:21:00;101452.59;;;15.75
78859;BMP280;68210;52.032;4.634;2023-04-15T11:23:10;101461.09;;;15.70
78859;BMP280;68210;52.032;4.634;2023-04-15T11:25:23;101466.84;;;15.61
78859;BMP280;68210;52.032;4.634;2023-04-15T11:27:24;101474.31;;;15.42
78859;BMP280;68210;52.032;4.634;2023-04-15T11:29:30;101471.31;;;15.25
78859;BMP280;68210;52.032;4.634;2023-04-15T11:31:31;101479.38;;;15.18
78859;BMP280;68210;52.032;4.634;2023-04-15T11:33:31;101473.44;;;14.94
78859;BMP280;68210;52.032;4.634;2023-04-15T11:35:32;101485.88;;;15.32
78859;BMP280;68210;52.032;4.634;2023-04-15T11:37:32;101490.19;;;15.33
78859;BMP280;68210;52.032;4.634;2023-04-15T11:39:33;101492.09;;;15.11